Time;durP1;ratioP1;P1;durP2;ratioP2;P2;SDS_P1;SDS_P2;PMS_P1;PMS_P2;Temp;Humidity;BMP_temperature;BMP_pressure;BME280_temperature;BME280_humidity;BME280_pressure;Samples;Min_cycle;Max_cycle;Signal;HPM_P1;HPM_P2
2021/10/02 00:46:33;;;;;;;24.90;16.93;;;;;;;16.31;45.22;101195.59;1735028;80;21066;-62
2021/10/02 00:48:59;;;;;;;23.22;17.80;;;;;;;16.28;45.27;101194.61;1730403;81;21081;-61
2021/10/02 00:51:26;;;;;;;23.87;16.60;;;;;;;16.27;45.31;101184.88;1752595;81;21536;-61
2021/10/02 00:53:52;;;;;;;27.95;17.90;;;;;;;16.25;45.35;101182.05;1746422;80;21088;-62
2021/10/02 00:56:19;;;;;;;25.77;17.67;;;;;;;16.24;45.36;101187.89;1736151;80;21022;-63
2021/10/02 00:58:49;;;;;;;25.70;17.90;;;;;;;16.21;45.40;101177.53;1751654;80;21138;-62
2021/10/02 01:01:16;;;;;;;25.17;17.80;;;;;;;16.20;45.40;101185.73;1734797;81;21715;-62
2021/10/02 01:03:50;;;;;;;27.20;19.40;;;;;;;16.19;45.43;101181.39;1737306;81;21057;-62
2021/10/02 01:06:34;;;;;;;24.85;18.70;;;;;;;16.17;45.44;101184.23;1743283;80;21061;-61
2021/10/02 01:09:21;;;;;;;;;;;;;;;16.16;45.43;101185.74;1745943;81;21097;-61
2021/10/02 01:12:09;;;;;;;25.88;18.65;;;;;;;16.12;45.46;101179.36;1735491;81;23285;-61
2021/10/02 01:15:03;;;;;;;26.87;17.95;;;;;;;16.07;45.54;101180.88;1710260;82;21735;-61
2021/10/02 01:17:38;;;;;;;26.95;19.42;;;;;;;16.04;45.58;101183.40;1712328;82;21643;-61
2021/10/02 01:20:09;;;;;;;26.45;18.82;;;;;;;16.02;45.62;101181.91;1699575;82;21058;-63
2021/10/02 01:23:28;;;;;;;35.20;19.98;;;;;;;16.00;45.64;101182.07;1702165;82;21074;-61
2021/10/02 01:26:33;;;;;;;23.90;18.95;;;;;;;15.98;45.69;101179.23;1702075;82;21155;-63
2021/10/02 01:29:01;;;;;;;24.45;19.80;;;;;;;15.93;45.75;101179.72;1699001;82;21057;-61
2021/10/02 01:47:41;;;;;;;30.27;20.08;;;;;;;15.78;46.10;101178.23;1711358;82;21057;-61
2021/10/02 01:50:08;;;;;;;30.12;20.27;;;;;;;15.78;46.12;101179.58;1721189;82;21047;-61
2021/10/02 01:52:39;;;;;;;28.07;20.82;;;;;;;15.77;46.15;101173.03;1704656;82;21518;-61
2021/10/02 01:55:07;;;;;;;29.35;20.37;;;;;;;15.75;46.13;101175.05;1711553;82;21011;-60
2021/10/02 01:57:44;;;;;;;26.65;19.70;;;;;;;15.75;46.13;101183.09;1710442;82;21062;-61
2021/10/02 02:00:13;;;;;;;26.87;20.40;;;;;;;15.73;46.11;101179.23;1710525;82;21070;-61
2021/10/02 02:02:51;;;;;;;24.40;19.45;;;;;;;15.73;46.11;101184.59;1703152;82;21062;-61
2021/10/02 02:05:22;;;;;;;30.65;19.32;;;;;;;15.71;46.14;101184.71;1711295;82;21146;-62
2021/10/02 02:07:52;;;;;;;24.27;19.70;;;;;;;15.69;46.12;101180.53;1696143;82;21089;-62
2021/10/02 02:10:20;;;;;;;25.90;19.90;;;;;;;15.68;46.13;101184.20;1721049;82;21062;-62
2021/10/02 02:12:49;;;;;;;28.85;19.80;;;;;;;15.66;46.15;101179.00;1723033;82;21101;-61
2021/10/02 02:15:15;;;;;;;25.48;19.42;;;;;;;15.65;46.15;101185.38;1728797;82;21046;-62
2021/10/02 02:17:45;;;;;;;27.58;19.90;;;;;;;15.64;46.16;101185.55;1731040;82;21125;-62
2021/10/02 02:20:19;;;;;;;30.90;19.80;;;;;;;15.63;46.19;101186.56;1719939;82;21047;-61
2021/10/02 02:22:45;;;;;;;28.90;20.43;;;;;;;15.63;46.20;101187.91;1725095;82;21502;-62
2021/10/02 02:25:11;;;;;;;26.77;19.87;;;;;;;15.60;46.22;101188.22;1696436;82;21518;-61
2021/10/02 02:27:38;;;;;;;26.62;19.80;;;;;;;15.58;46.22;101189.72;1732821;82;21093;-63
2021/10/02 02:30:06;;;;;;;25.30;19.70;;;;;;;15.56;46.25;101182.86;1735447;82;21144;-62
2021/10/02 02:32:33;;;;;;;24.23;19.85;;;;;;;15.56;46.25;101188.22;1722094;82;21039;-62
2021/10/02 02:35:00;;;;;;;26.23;19.42;;;;;;;15.53;46.27;101180.85;1736997;82;21037;-62
2021/10/02 02:37:26;;;;;;;26.17;19.15;;;;;;;15.53;46.29;101184.04;1725921;82;21546;-61
2021/10/02 02:39:52;;;;;;;23.00;18.48;;;;;;;15.51;46.30;101178.84;1729031;82;21540;-63
2021/10/02 02:42:19;;;;;;;24.45;19.30;;;;;;;15.49;46.29;101174.16;1721847;82;21138;-61
2021/10/02 02:44:46;;;;;;;29.40;19.80;;;;;;;15.47;46.30;101170.81;1733424;82;21529;-62
2021/10/02 02:47:17;;;;;;;27.13;20.50;;;;;;;15.46;46.32;101179.83;1721453;82;21579;-62
2021/10/02 02:50:10;;;;;;;24.37;18.77;;;;;;;15.45;46.33;101174.63;1664588;85;21129;-61
2021/10/02 02:53:01;;;;;;;26.97;19.90;;;;;;;15.44;46.33;101168.95;1729011;82;21089;-62
2021/10/02 02:55:36;;;;;;;24.05;19.52;;;;;;;15.41;46.38;101169.27;1726720;82;21998;-61
2021/10/02 02:58:04;;;;;;;26.52;18.95;;;;;;;15.39;46.39;101164.59;1728054;82;21465;-61
2021/10/02 03:00:30;;;;;;;27.55;20.30;;;;;;;15.38;46.41;101165.61;1730900;82;21029;-62
2021/10/02 03:03:05;;;;;;;28.07;19.77;;;;;;;15.36;46.44;101163.59;1714008;82;21062;-63
2021/10/02 03:05:32;;;;;;;26.57;20.80;;;;;;;15.34;46.46;101155.72;1723876;82;21007;-62
2021/10/02 03:08:04;;;;;;;26.60;20.97;;;;;;;15.32;46.47;101155.87;1726480;82;21069;-62
2021/10/02 03:10:32;;;;;;;27.48;20.82;;;;;;;15.32;46.53;101156.39;1732926;82;21053;-62
2021/10/02 03:13:06;;;;;;;27.22;20.17;;;;;;;15.29;46.55;101156.20;1729763;81;21505;-62
2021/10/02 03:15:32;;;;;;;;;;;;;;;15.28;46.56;101154.54;1734330;82;21099;-62
2021/10/02 03:18:00;;;;;;;28.87;19.30;;;;;;;15.28;46.57;101156.38;1734545;82;20171;-62
2021/10/02 03:20:26;;;;;;;29.98;20.30;;;;;;;15.23;46.61;101152.02;1726877;82;21157;-62
2021/10/02 03:22:55;;;;;;;25.20;20.32;;;;;;;15.21;46.64;101150.00;1720588;82;21039;-61
2021/10/02 03:25:25;;;;;;;29.40;21.70;;;;;;;15.20;46.62;101146.98;1723957;82;21082;-63
2021/10/02 03:27:54;;;;;;;27.05;20.45;;;;;;;15.19;46.61;101148.82;1734299;82;21072;-63
2021/10/02 03:30:20;;;;;;;26.17;18.50;;;;;;;15.19;46.61;101148.00;1720650;82;21042;-63
2021/10/02 03:32:47;;;;;;;27.93;20.17;;;;;;;15.18;46.62;101147.13;1721164;82;21207;-62
2021/10/02 03:35:13;;;;;;;31.00;19.45;;;;;;;15.17;46.62;101143.30;1737284;82;21013;-61
2021/10/02 03:37:40;;;;;;;26.00;19.90;;;;;;;15.16;46.59;101146.97;1733196;82;21085;-63
2021/10/02 03:40:09;;;;;;;25.12;18.73;;;;;;;15.13;46.57;101150.31;1727123;82;21018;-62
2021/10/02 03:42:49;;;;;;;24.63;19.75;;;;;;;15.13;46.58;101148.14;1724497;82;21077;-62
2021/10/02 03:45:20;;;;;;;25.17;19.12;;;;;;;15.11;46.59;101150.98;1726139;82;21518;-63
2021/10/02 03:47:47;;;;;;;25.23;19.75;;;;;;;15.08;46.61;101147.28;1720049;82;21082;-62
2021/10/02 03:50:14;;;;;;;27.40;18.65;;;;;;;15.07;46.62;101148.30;1734080;82;21022;-62
2021/10/02 03:52:40;;;;;;;25.05;18.60;;;;;;;15.06;46.64;101147.11;1730140;82;21060;-61
2021/10/02 03:55:09;;;;;;;25.05;20.65;;;;;;;15.05;46.64;101148.13;1720871;82;21070;-63
2021/10/02 03:57:36;;;;;;;26.68;20.50;;;;;;;15.04;46.65;101147.27;1722625;82;21138;-63
2021/10/02 04:00:04;;;;;;;28.45;19.23;;;;;;;15.03;46.67;101144.78;1720978;82;21034;-64
2021/10/02 04:02:32;;;;;;;31.17;20.75;;;;;;;15.02;46.70;101149.27;1728445;82;21602;-63
2021/10/02 04:04:59;;;;;;;30.50;22.02;;;;;;;15.01;46.73;101154.30;1740487;82;21543;-63
2021/10/02 04:07:26;;;;;;;28.75;21.73;;;;;;;15.00;46.73;101153.13;1720583;82;21089;-62
2021/10/02 04:09:52;;;;;;;30.95;21.70;;;;;;;14.99;46.74;101163.00;1725328;82;21149;-62
2021/10/02 04:12:19;;;;;;;30.23;22.20;;;;;;;14.99;46.75;101158.13;1731231;82;21066;-63
2021/10/02 04:14:47;;;;;;;29.50;21.40;;;;;;;14.97;46.77;101152.95;1722284;82;21554;-62
2021/10/02 04:17:15;;;;;;;25.57;20.60;;;;;;;14.96;46.77;101151.27;1716869;82;21083;-62
2021/10/02 04:19:43;;;;;;;27.02;22.27;;;;;;;14.95;46.79;101154.96;1722951;82;21597;-63
2021/10/02 04:22:10;;;;;;;29.07;22.02;;;;;;;14.92;46.79;101157.44;1716094;82;21149;-63
2021/10/02 04:24:37;;;;;;;32.45;21.85;;;;;;;14.92;46.83;101148.58;1718403;82;21082;-62
2021/10/02 04:27:03;;;;;;;30.65;21.97;;;;;;;14.91;46.85;101152.24;1709392;82;21074;-63
2021/10/02 04:29:31;;;;;;;31.45;22.73;;;;;;;14.90;46.84;101150.08;1712664;82;21082;-62
2021/10/02 04:31:58;;;;;;;28.30;21.80;;;;;;;14.89;46.85;101149.76;1721227;82;21856;-63
2021/10/02 04:34:25;;;;;;;28.32;22.87;;;;;;;14.88;46.87;101142.72;1713842;82;21815;-63
2021/10/02 04:36:51;;;;;;;28.73;21.80;;;;;;;14.89;46.89;101148.42;1715448;82;20991;-62
2021/10/02 04:39:17;;;;;;;28.75;21.77;;;;;;;14.88;46.88;101149.41;1708128;82;21094;-62
2021/10/02 04:41:44;;;;;;;32.00;22.95;;;;;;;14.88;46.88;101147.23;1707121;82;21054;-62
2021/10/02 04:44:12;;;;;;;28.75;22.25;;;;;;;14.88;46.89;101149.91;1715115;82;21523;-62
2021/10/02 04:46:38;;;;;;;30.08;22.10;;;;;;;14.88;46.90;101145.39;1716639;82;21141;-63
2021/10/02 04:49:09;;;;;;;31.37;21.37;;;;;;;14.89;46.92;101147.55;1710957;82;21058;-63
2021/10/02 04:51:34;;;;;;;32.25;22.55;;;;;;;14.88;46.93;101145.39;1698706;82;21040;-63
2021/10/02 04:54:01;;;;;;;34.78;22.45;;;;;;;14.89;46.92;101143.55;1706706;82;21615;-62
2021/10/02 04:56:27;;;;;;;32.05;22.70;;;;;;;14.88;46.94;101141.88;1671600;84;21070;-64
2021/10/02 04:58:53;;;;;;;31.27;23.07;;;;;;;14.88;46.96;101144.56;1716219;82;21586;-63
2021/10/02 05:01:20;;;;;;;34.67;22.48;;;;;;;14.88;46.99;101141.88;1703476;82;21049;-62
2021/10/02 05:03:47;;;;;;;25.65;21.77;;;;;;;14.87;47.02;101139.72;1720674;81;21021;-63
2021/10/02 05:06:14;;;;;;;31.05;23.32;;;;;;;14.87;47.03;101143.73;1716795;81;21548;-63
2021/10/02 05:08:40;;;;;;;36.45;23.05;;;;;;;14.87;47.07;101142.39;1721701;82;21046;-62
2021/10/02 05:11:08;;;;;;;36.35;24.23;;;;;;;14.87;47.08;101149.56;1729212;82;21070;-62
2021/10/02 05:13:36;;;;;;;32.10;23.77;;;;;;;14.88;47.11;101149.91;1712495;82;21029;-62
2021/10/02 05:16:04;;;;;;;25.17;21.33;;;;;;;14.89;47.19;101146.22;1725012;83;21082;-62
2021/10/02 05:18:30;;;;;;;35.83;23.52;;;;;;;14.89;47.21;101148.89;1723520;83;21105;-62
2021/10/02 05:20:59;;;;;;;33.20;23.38;;;;;;;14.90;47.25;101153.27;1715620;83;21069;-62
2021/10/02 05:23:25;;;;;;;32.65;23.02;;;;;;;14.92;47.28;101159.28;1715737;83;21132;-62
2021/10/02 05:25:54;;;;;;;34.78;24.15;;;;;;;14.93;47.32;101164.96;1725005;83;21469;-62
2021/10/02 05:28:21;;;;;;;34.38;23.22;;;;;;;14.93;47.37;101160.47;1724178;83;21021;-61
2021/10/02 05:30:48;;;;;;;31.42;22.13;;;;;;;14.96;47.38;101165.98;1719310;83;21028;-63
2021/10/02 05:33:14;;;;;;;31.55;22.82;;;;;;;14.97;47.42;101163.66;1724706;83;21104;-62
2021/10/02 05:35:41;;;;;;;31.60;22.82;;;;;;;14.98;47.48;101163.98;1716283;83;21147;-63
2021/10/02 05:38:07;;;;;;;32.90;24.45;;;;;;;14.98;47.52;101161.81;1725100;83;21493;-63
2021/10/02 05:40:33;;;;;;;31.25;24.50;;;;;;;14.98;47.59;101166.66;1721872;83;21009;-62
2021/10/02 05:43:02;;;;;;;35.23;23.98;;;;;;;15.00;47.63;101164.66;1724474;83;21065;-62
2021/10/02 05:45:29;;;;;;;31.35;24.00;;;;;;;15.02;47.64;101167.17;1723972;83;21120;-64
2021/10/02 05:47:57;;;;;;;31.62;23.30;;;;;;;15.03;47.69;101162.17;1723489;83;21100;-61
2021/10/02 05:50:23;;;;;;;31.62;23.32;;;;;;;15.04;47.74;101167.85;1722273;83;21553;-61
2021/10/02 05:52:49;;;;;;;29.52;23.65;;;;;;;15.06;47.79;101164.52;1716884;83;20985;-63
2021/10/02 05:55:16;;;;;;;29.85;23.75;;;;;;;15.08;47.83;101169.20;1722205;82;21060;-64
2021/10/02 05:57:42;;;;;;;30.75;23.55;;;;;;;15.10;47.89;101164.52;1725196;83;21032;-63
2021/10/02 06:00:10;;;;;;;30.17;24.27;;;;;;;15.12;47.94;101166.05;1695967;83;21146;-61
2021/10/02 06:02:40;;;;;;;33.42;25.23;;;;;;;15.14;47.96;101168.06;1716916;83;21037;-63
2021/10/02 06:05:07;;;;;;;32.20;23.15;;;;;;;15.16;48.01;101165.20;1712143;81;21556;-62
2021/10/02 06:07:33;;;;;;;36.08;25.75;;;;;;;15.19;48.06;101172.09;1703867;83;21024;-64
2021/10/02 06:10:00;;;;;;;32.05;24.40;;;;;;;15.21;48.11;101172.76;1720736;83;21068;-65
2021/10/02 06:12:27;;;;;;;35.40;24.18;;;;;;;15.23;48.16;101174.77;1710121;83;21129;-65
2021/10/02 06:14:53;;;;;;;34.58;24.63;;;;;;;15.26;48.22;101178.44;1717539;82;21064;-63
2021/10/02 06:17:20;;;;;;;36.35;24.43;;;;;;;15.29;48.28;101182.14;1723701;82;21218;-64
2021/10/02 06:19:46;;;;;;;32.42;25.85;;;;;;;15.30;48.38;101179.81;1735250;82;21498;-63
2021/10/02 06:22:12;;;;;;;31.73;24.80;;;;;;;15.34;48.45;101183.84;1730515;82;21071;-64
2021/10/02 06:24:39;;;;;;;35.75;26.40;;;;;;;15.37;48.50;101178.64;1733403;82;21073;-63
2021/10/02 06:27:06;;;;;;;33.98;25.17;;;;;;;15.40;48.54;101183.17;1725926;82;21087;-63
2021/10/02 06:29:33;;;;;;;29.32;24.98;;;;;;;15.43;48.56;101182.86;1714687;82;21030;-63
2021/10/02 06:32:00;;;;;;;36.23;26.97;;;;;;;15.46;48.59;101182.51;1724470;82;21192;-64
2021/10/02 06:34:26;;;;;;;34.33;25.05;;;;;;;15.51;48.63;101186.02;1725785;82;21528;-63
2021/10/02 06:36:52;;;;;;;36.53;26.10;;;;;;;15.54;48.65;101185.19;1724389;82;21108;-63
2021/10/02 06:39:19;;;;;;;34.13;25.30;;;;;;;15.59;48.67;101189.20;1717954;82;21035;-63
2021/10/02 06:41:47;;;;;;;39.80;25.55;;;;;;;15.62;48.67;101185.70;1729960;82;21006;-63
2021/10/02 06:44:14;;;;;;;33.75;26.10;;;;;;;15.65;48.64;101184.55;1731418;82;21010;-63
2021/10/02 06:46:40;;;;;;;36.50;23.62;;;;;;;15.69;48.62;101179.20;1724208;82;21030;-63
2021/10/02 06:49:08;;;;;;;36.45;24.25;;;;;;;15.73;48.52;101184.59;1714073;82;21935;-64
2021/10/02 06:51:35;;;;;;;33.73;24.70;;;;;;;15.76;48.37;101182.92;1713244;82;21530;-63
2021/10/02 06:54:02;;;;;;;29.32;23.07;;;;;;;15.81;48.16;101183.23;1714576;82;21594;-63
2021/10/02 06:56:30;;;;;;;31.90;21.05;;;;;;;15.87;47.98;101179.05;1734699;82;21351;-62
2021/10/02 06:58:57;;;;;;;28.80;22.50;;;;;;;15.91;47.79;101181.73;1717004;82;21083;-63
2021/10/02 07:01:23;;;;;;;29.85;20.05;;;;;;;15.97;47.55;101182.91;1725945;82;21151;-64
2021/10/02 07:03:50;;;;;;;26.40;18.87;;;;;;;16.02;47.40;101185.92;1717192;82;21705;-62
2021/10/02 07:06:16;;;;;;;26.15;19.50;;;;;;;16.07;47.22;101186.23;1722496;82;21022;-63
2021/10/02 07:08:43;;;;;;;28.67;18.73;;;;;;;16.10;47.07;101186.74;1730766;82;21476;-63
2021/10/02 07:11:10;;;;;;;26.45;17.77;;;;;;;16.15;46.96;101188.94;1723224;82;21041;-63
2021/10/02 07:13:36;;;;;;;24.23;17.07;;;;;;;16.19;46.89;101188.09;1731415;82;21617;-63
2021/10/02 07:16:04;;;;;;;25.95;17.48;;;;;;;16.23;46.78;101191.59;1715127;82;21049;-64
2021/10/02 07:18:32;;;;;;;18.87;15.38;;;;;;;16.28;46.65;101187.91;1747456;82;21030;-63
2021/10/02 07:20:58;;;;;;;22.87;15.70;;;;;;;16.33;46.51;101192.75;1742390;82;21099;-63
2021/10/02 07:23:29;;;;;;;18.15;15.68;;;;;;;16.38;46.32;101185.52;1736882;82;21036;-63
2021/10/02 07:25:56;;;;;;;25.02;14.68;;;;;;;16.42;46.08;101181.00;1735232;82;21982;-63
2021/10/02 07:28:23;;;;;;;26.70;15.93;;;;;;;16.46;45.87;101183.67;1737477;82;21504;-63
2021/10/02 07:30:49;;;;;;;18.32;15.13;;;;;;;16.51;45.74;101186.69;1719067;82;21512;-63
2021/10/02 07:33:18;;;;;;;20.65;14.23;;;;;;;16.54;45.53;101178.80;1718880;82;21066;-66
2021/10/02 07:35:46;;;;;;;18.00;14.13;;;;;;;16.58;45.33;101180.12;1716707;82;21620;-62
2021/10/02 07:38:14;;;;;;;18.15;12.75;;;;;;;16.63;45.17;101176.42;1745524;82;21597;-62
2021/10/02 07:40:40;;;;;;;16.55;13.70;;;;;;;16.66;45.05;101174.72;1724762;82;21083;-63
2021/10/02 07:43:08;;;;;;;19.45;12.65;;;;;;;16.68;44.88;101171.35;1724265;82;21110;-63
2021/10/02 07:45:35;;;;;;;17.23;12.93;;;;;;;16.73;44.74;101168.66;1741785;82;21017;-63
2021/10/02 07:48:03;;;;;;;15.18;12.15;;;;;;;16.77;44.56;101172.17;1738925;82;21064;-63
2021/10/02 07:50:30;;;;;;;16.23;13.15;;;;;;;16.82;44.50;101174.36;1733215;82;21205;-63
2021/10/02 07:52:56;;;;;;;19.77;12.65;;;;;;;16.87;44.37;101170.66;1729824;82;21053;-64
2021/10/02 07:55:24;;;;;;;13.00;11.10;;;;;;;16.90;44.24;101168.95;1740342;82;21081;-64
2021/10/02 07:57:51;;;;;;;12.88;11.08;;;;;;;16.95;44.10;101169.27;1702248;82;21033;-63
2021/10/02 08:00:19;;;;;;;13.20;11.70;;;;;;;16.99;44.03;101168.41;1740991;82;21103;-64
2021/10/02 08:02:50;;;;;;;17.87;12.40;;;;;;;17.04;43.94;101168.73;1732260;82;21095;-63
2021/10/02 08:05:17;;;;;;;14.45;11.50;;;;;;;17.08;43.82;101166.86;1718993;82;21047;-63
2021/10/02 08:07:46;;;;;;;16.55;11.65;;;;;;;17.15;43.81;101168.31;1719691;82;21038;-63
2021/10/02 08:10:15;;;;;;;18.17;13.10;;;;;;;17.20;43.79;101162.44;1720886;82;21075;-62
2021/10/02 08:12:41;;;;;;;13.20;11.30;;;;;;;17.25;43.88;101164.09;1724548;82;21275;-62
2021/10/02 08:15:09;;;;;;;14.87;11.57;;;;;;;17.30;44.08;101165.72;1723495;82;21021;-64
2021/10/02 08:17:38;;;;;;;15.75;10.95;;;;;;;17.35;44.07;101168.72;1720710;82;21092;-63
2021/10/02 08:20:10;;;;;;;17.60;10.60;;;;;;;17.40;44.25;101163.66;1726343;82;21070;-63
2021/10/02 08:22:40;;;;;;;13.13;10.25;;;;;;;17.45;44.31;101157.73;1720292;82;21044;-62
2021/10/02 08:25:10;;;;;;;13.03;10.35;;;;;;;17.51;44.38;101161.56;1737602;82;21086;-63
2021/10/02 08:27:37;;;;;;;17.40;10.90;;;;;;;17.56;44.40;101161.36;1725971;82;21871;-63
2021/10/02 08:30:06;;;;;;;11.93;10.32;;;;;;;17.62;44.39;101159.28;1721245;82;21565;-63
2021/10/02 08:32:33;;;;;;;17.92;12.03;;;;;;;17.68;44.47;101161.77;1725929;82;21079;-65
2021/10/02 08:35:05;;;;;;;16.50;11.30;;;;;;;17.75;44.27;101164.07;1716578;82;21072;-65
2021/10/02 08:37:33;;;;;;;13.65;11.40;;;;;;;17.79;44.35;101155.97;1721818;82;21014;-65
2021/10/02 08:40:00;;;;;;;17.55;10.60;;;;;;;17.86;44.38;101162.81;1714017;82;21090;-65
2021/10/02 08:42:26;;;;;;;14.98;10.43;;;;;;;17.92;44.41;101158.57;1730390;82;21049;-65
2021/10/02 08:44:53;;;;;;;14.58;11.03;;;;;;;17.99;44.32;101158.18;1732807;82;21058;-64
2021/10/02 08:47:20;;;;;;;13.08;9.55;;;;;;;18.05;44.15;101153.41;1723410;82;21067;-65
2021/10/02 08:49:48;;;;;;;14.20;9.35;;;;;;;18.11;44.10;101164.77;1719612;82;21069;-65
2021/10/02 08:52:17;;;;;;;12.73;9.03;;;;;;;18.18;43.48;101160.34;1723769;82;21140;-63
2021/10/02 08:54:45;;;;;;;11.75;8.88;;;;;;;18.25;42.93;101161.28;1722109;82;21092;-65
2021/10/02 08:57:20;;;;;;;12.40;8.83;;;;;;;18.32;42.31;101151.13;1724960;82;21020;-64
2021/10/02 08:59:46;;;;;;;;;;;;;;;18.39;42.14;101150.20;1716689;82;21111;-63
2021/10/02 09:02:14;;;;;;;14.40;8.83;;;;;;;18.47;42.25;101147.93;1713443;82;20158;-62
2021/10/02 09:04:41;;;;;;;11.85;7.85;;;;;;;18.50;42.08;101155.61;1717720;82;21145;-63
2021/10/02 09:07:09;;;;;;;11.38;7.83;;;;;;;18.58;41.31;101146.61;1725815;82;21024;-62
2021/10/02 09:09:38;;;;;;;10.90;8.05;;;;;;;18.66;41.43;101147.36;1716431;82;21037;-63
2021/10/02 09:12:07;;;;;;;10.80;7.70;;;;;;;18.75;41.45;101152.64;1732597;82;21558;-64
2021/10/02 09:14:34;;;;;;;12.13;8.03;;;;;;;18.83;41.29;101155.25;1725273;82;21083;-63
2021/10/02 09:17:03;;;;;;;8.68;7.05;;;;;;;18.92;41.23;101147.39;1741631;82;21012;-63
2021/10/02 09:19:32;;;;;;;15.70;7.80;;;;;;;19.00;41.20;101137.02;1729753;82;21031;-62
2021/10/02 09:22:07;;;;;;;12.75;7.50;;;;;;;19.08;41.25;101136.08;1740830;81;21136;-66
2021/10/02 09:24:40;;;;;;;10.43;7.03;;;;;;;19.18;41.14;101135.25;1730487;82;21052;-63
2021/10/02 09:27:24;;;;;;;9.90;7.28;;;;;;;19.25;41.11;101132.95;1724399;82;21056;-64
2021/10/02 09:29:55;;;;;;;10.90;7.47;;;;;;;19.35;40.93;101135.32;1721637;82;21221;-64
2021/10/02 09:32:36;;;;;;;9.40;7.33;;;;;;;19.44;40.70;101124.74;1730645;82;21574;-63
2021/10/02 09:35:10;;;;;;;9.85;7.12;;;;;;;19.54;40.35;101142.45;1741263;82;21122;-62
2021/10/02 09:37:42;;;;;;;8.75;6.97;;;;;;;19.62;40.43;101131.53;1739731;82;21089;-63
2021/10/02 09:40:18;;;;;;;7.95;6.87;;;;;;;19.71;39.82;101134.42;1737622;82;21494;-63
2021/10/02 09:42:55;;;;;;;11.78;7.30;;;;;;;19.80;39.58;101126.55;1736641;82;21144;-63
2021/10/02 09:45:38;;;;;;;12.50;8.40;;;;;;;19.89;39.32;101123.70;1742008;82;21573;-62
2021/10/02 09:48:09;;;;;;;12.43;7.15;;;;;;;19.98;39.22;101122.53;1733352;82;21537;-64
2021/10/02 09:50:41;;;;;;;9.78;7.12;;;;;;;20.07;39.36;101125.41;1742737;82;21159;-63
2021/10/02 09:53:12;;;;;;;7.28;6.40;;;;;;;20.16;39.44;101130.12;1734640;82;21037;-62
2021/10/02 09:55:45;;;;;;;8.10;6.37;;;;;;;20.26;39.41;101120.32;1731499;82;22105;-63
2021/10/02 09:58:14;;;;;;;;;;;;;;;20.35;39.48;101117.78;1719379;82;21040;-64
2021/10/02 10:00:48;;;;;;;8.93;6.95;;;;;;;20.44;39.24;101117.95;1719085;82;20205;-63
2021/10/02 10:03:17;;;;;;;10.30;7.35;;;;;;;20.50;38.98;101101.47;1741936;82;21072;-63
2021/10/02 10:05:53;;;;;;;12.58;7.15;;;;;;;20.57;38.58;101102.31;1736679;82;21064;-63
2021/10/02 10:08:32;;;;;;;10.35;6.50;;;;;;;20.66;38.41;101109.24;1728281;82;21094;-67
2021/10/02 10:11:08;;;;;;;7.72;6.85;;;;;;;20.76;38.75;101099.41;1716333;82;21144;-64
2021/10/02 10:13:34;;;;;;;11.15;7.12;;;;;;;20.85;38.47;101103.61;1740362;82;21073;-65
2021/10/02 10:16:08;;;;;;;7.85;6.40;;;;;;;20.95;38.55;101097.81;1723592;82;21029;-64
2021/10/02 10:18:37;;;;;;;8.38;6.00;;;;;;;21.02;38.23;101089.22;1722897;82;21094;-65
2021/10/02 10:21:08;;;;;;;7.47;5.62;;;;;;;21.12;38.27;101086.12;1720976;82;22141;-64
2021/10/02 10:23:41;;;;;;;8.10;6.12;;;;;;;21.21;38.33;101086.25;1722877;82;21253;-65
2021/10/02 10:26:11;;;;;;;10.20;6.12;;;;;;;21.30;38.12;101079.58;1717255;82;21585;-65
2021/10/02 10:28:40;;;;;;;10.23;6.65;;;;;;;21.39;38.14;101079.70;1739046;82;21084;-67
2021/10/02 10:31:24;;;;;;;9.38;7.05;;;;;;;21.49;38.07;101075.80;1713631;82;21594;-66
2021/10/02 10:33:54;;;;;;;8.33;6.35;;;;;;;21.58;37.63;101073.20;1716475;82;21075;-64
2021/10/02 10:36:26;;;;;;;8.83;6.42;;;;;;;21.67;37.13;101073.31;1726583;82;21526;-64
2021/10/02 10:38:53;;;;;;;8.48;6.33;;;;;;;21.77;37.23;101068.83;1715957;82;21075;-64
2021/10/02 10:41:22;;;;;;;10.45;6.62;;;;;;;21.87;37.23;101069.75;1719991;82;21052;-65
2021/10/02 10:43:50;;;;;;;6.42;5.83;;;;;;;21.95;36.95;101066.28;1717139;82;21133;-65
2021/10/02 10:46:22;;;;;;;7.92;5.83;;;;;;;22.05;36.85;101063.67;1723023;82;21089;-64
2021/10/02 10:48:49;;;;;;;10.65;5.92;;;;;;;22.14;37.04;101059.16;1713510;82;21035;-65
2021/10/02 10:51:19;;;;;;;9.50;5.70;;;;;;;22.24;37.10;101057.36;1718650;82;21075;-65
2021/10/02 10:53:48;;;;;;;8.90;5.60;;;;;;;22.33;36.99;101049.88;1716846;82;21011;-65
2021/10/02 10:56:18;;;;;;;7.65;5.80;;;;;;;22.43;36.90;101047.55;1726314;82;21085;-64
2021/10/02 10:58:44;;;;;;;9.95;6.33;;;;;;;22.52;36.70;101058.95;1710343;82;23271;-65
2021/10/02 11:01:11;;;;;;;7.95;5.78;;;;;;;22.60;36.21;101045.69;1713399;82;21671;-65
2021/10/02 11:03:47;;;;;;;8.28;5.90;;;;;;;22.70;36.08;101039.30;1713519;82;21043;-65
2021/10/02 11:06:16;;;;;;;7.30;6.08;;;;;;;22.80;35.98;101045.06;1715124;82;21108;-66
2021/10/02 11:09:07;;;;;;;7.12;6.20;;;;;;;22.90;35.63;101041.34;1715491;82;21130;-65
2021/10/02 11:11:53;;;;;;;7.30;6.37;;;;;;;22.99;35.39;101037.87;1727997;82;21011;-65
2021/10/02 11:14:23;;;;;;;9.48;6.15;;;;;;;23.09;35.25;101040.94;1732201;82;21217;-65
2021/10/02 11:17:02;;;;;;;7.75;5.30;;;;;;;23.18;34.83;101032.53;1714930;82;21527;-66
2021/10/02 11:19:37;;;;;;;9.05;6.03;;;;;;;23.27;34.72;101025.80;1739551;81;21079;-66
2021/10/02 11:22:53;;;;;;;7.95;6.00;;;;;;;23.35;34.68;101029.08;1743823;81;21024;-65
2021/10/02 11:25:20;;;;;;;6.45;5.65;;;;;;;23.45;34.39;101023.66;1715582;81;22392;-60
2021/10/02 11:27:48;;;;;;;8.30;6.00;;;;;;;23.57;33.86;101019.72;1737883;81;21091;-62
2021/10/02 11:30:18;;;;;;;10.68;6.30;;;;;;;23.66;34.91;101026.49;1746730;81;21055;-65
2021/10/02 11:32:46;;;;;;;15.70;6.53;;;;;;;23.76;35.86;101018.69;1746715;81;21549;-63
2021/10/02 11:35:21;;;;;;;11.48;6.30;;;;;;;23.84;36.33;101023.03;1744439;81;21546;-63
2021/10/02 11:37:55;;;;;;;9.25;6.25;;;;;;;23.93;35.98;101017.58;1740509;81;21841;-65
2021/10/02 11:40:42;;;;;;;7.60;5.50;;;;;;;24.02;35.24;101012.70;1745198;81;21087;-65
2021/10/02 11:43:22;;;;;;;8.98;5.60;;;;;;;24.11;33.46;101012.70;1724928;81;21102;-64
2021/10/02 11:45:56;;;;;;;7.22;5.12;;;;;;;24.22;32.18;101008.38;1732375;81;21063;-65
2021/10/02 11:48:39;;;;;;;6.40;5.35;;;;;;;24.29;31.73;101006.41;1752989;81;21077;-66
2021/10/02 11:51:28;;;;;;;6.55;5.03;;;;;;;24.37;31.13;100999.30;1731281;81;21077;-63
2021/10/02 11:54:12;;;;;;;8.53;6.10;;;;;;;24.44;31.04;101009.56;1747432;81;21014;-63
2021/10/02 11:56:39;;;;;;;10.43;5.62;;;;;;;24.55;30.72;101008.50;1742698;81;21497;-64
2021/10/02 11:59:05;;;;;;;6.70;4.78;;;;;;;24.65;30.43;100997.94;1746343;81;21116;-63
2021/10/02 12:01:38;;;;;;;5.80;5.05;;;;;;;24.82;30.44;100992.14;1742144;80;21054;-64
2021/10/02 12:04:10;;;;;;;7.17;5.33;;;;;;;25.12;29.97;100992.60;1720788;81;21108;-64
2021/10/02 12:06:44;;;;;;;8.85;5.87;;;;;;;25.53;29.62;101000.39;1741036;81;21556;-63
2021/10/02 12:09:12;;;;;;;6.95;5.28;;;;;;;25.97;28.99;100990.51;1728116;81;21130;-64
2021/10/02 12:11:44;;;;;;;6.75;5.40;;;;;;;26.36;28.70;100996.19;1745288;81;21051;-66
2021/10/02 12:14:22;;;;;;;8.40;5.47;;;;;;;26.72;28.35;100990.91;1747104;81;21055;-67
2021/10/02 12:17:02;;;;;;;7.35;6.15;;;;;;;27.08;28.14;100981.95;1741514;81;21651;-65
2021/10/02 12:19:30;;;;;;;7.55;5.67;;;;;;;27.44;27.58;100984.73;1745562;81;21540;-65
2021/10/02 12:22:05;;;;;;;8.70;5.67;;;;;;;27.74;27.31;100975.34;1727272;81;21062;-67
2021/10/02 12:24:40;;;;;;;6.47;5.37;;;;;;;27.98;27.08;100980.03;1726410;81;21078;-66
2021/10/02 12:27:20;;;;;;;7.08;5.78;;;;;;;28.23;26.95;100976.78;1746808;81;21586;-65
2021/10/02 12:31:02;;;;;;;7.90;6.03;;;;;;;28.46;26.26;100976.21;1870215;76;22532;-66